Shavano Park, Texas
Current Conditions -  °F | °C
As of 3:51 PM on Sunday 23 Nov 2014 (Local Time) from KSAT Reporting Station
Few Clouds Few Clouds  
Wind Chill: 27°   Ceiling: Unl
Heat Index: 27°   Visibility: 10mi
Dew Point:   Wind: 15mph
Humidity: 25%   Direction: 270°W
Pressure: 29.57"   Gusts: 20mph
Location:  29.5766°N, 98.5421°W
Report Text: KSAT 232151Z 27013G17KT 10SM FEW250 27/06 A2957 RMK AO2 SLP998 T02720056
Loading
Personal Weather Stations






























Interactive Weather Map New forecast layout! Learn more

10-Day Weather Forecast

Advertisements
Track Severe Weather on mobile